Time;durP1;ratioP1;P1;durP2;ratioP2;P2;SDS_P1;SDS_P2;PMS_P1;PMS_P2;Temp;Humidity;BMP_temperature;BMP_pressure;BME280_temperature;BME280_humidity;BME280_pressure;Samples;Min_cycle;Max_cycle;Signal;HPM_P1;HPM_P2
2022/04/18 00:00:32;;;;;;;6.15;4.25;;;2.70;99.90;;;;;;4930519;28;20042;-62
2022/04/18 00:03:03;;;;;;;6.63;4.28;;;2.70;99.90;;;;;;4925946;28;20038;-62
2022/04/18 00:05:31;;;;;;;8.57;4.55;;;2.60;99.90;;;;;;4910049;28;20039;-62
2022/04/18 00:07:58;;;;;;;5.82;3.95;;;2.60;99.90;;;;;;4908706;28;20204;-63
2022/04/18 00:10:25;;;;;;;4.63;4.05;;;2.50;99.90;;;;;;4907536;28;20050;-62
2022/04/18 00:12:52;;;;;;;6.03;3.63;;;2.50;99.90;;;;;;4907847;28;20101;-62
2022/04/18 00:15:19;;;;;;;;;;;2.50;99.90;;;;;;4914898;28;20412;-63
2022/04/18 00:17:46;;;;;;;6.97;4.43;;;2.50;99.90;;;;;;4926694;28;20187;-63
2022/04/18 00:20:13;;;;;;;;;;;2.50;99.90;;;;;;4928609;28;20058;-63
2022/04/18 00:22:40;;;;;;;10.73;4.68;;;2.40;99.90;;;;;;4928128;28;19929;-63
2022/04/18 00:25:07;;;;;;;7.13;4.25;;;2.40;99.90;;;;;;4930388;28;20046;-63
2022/04/18 00:27:35;;;;;;;7.40;4.68;;;2.40;99.90;;;;;;4924771;28;20787;-63
2022/04/18 00:30:02;;;;;;;6.10;4.63;;;2.30;99.90;;;;;;4927543;28;20433;-63
2022/04/18 00:32:29;;;;;;;5.05;4.05;;;2.30;99.90;;;;;;4929465;28;20148;-63
2022/04/18 00:34:57;;;;;;;5.75;4.45;;;2.20;99.90;;;;;;4930780;28;20140;-62
2022/04/18 00:37:24;;;;;;;5.57;4.55;;;2.10;99.90;;;;;;4927705;28;20739;-62
2022/04/18 00:39:51;;;;;;;7.20;4.10;;;2.10;99.90;;;;;;4928817;28;20034;-63
2022/04/18 00:42:18;;;;;;;7.38;4.10;;;2.10;99.90;;;;;;4931240;28;20066;-63
2022/04/18 00:44:45;;;;;;;5.57;3.97;;;2.00;99.90;;;;;;4927251;28;20077;-62
2022/04/18 00:47:13;;;;;;;6.45;4.80;;;2.00;99.90;;;;;;4927590;28;20052;-63
2022/04/18 00:49:40;;;;;;;6.82;4.10;;;2.00;99.90;;;;;;4910230;28;20216;-62
2022/04/18 00:52:07;;;;;;;7.15;3.97;;;2.00;99.90;;;;;;4911983;28;20066;-63
2022/04/18 00:54:34;;;;;;;7.05;4.03;;;2.00;99.90;;;;;;4912390;28;20605;-62
2022/04/18 00:57:05;;;;;;;7.00;4.65;;;2.00;99.90;;;;;;4910375;28;20507;-62
2022/04/18 00:59:32;;;;;;;6.20;4.00;;;2.00;99.90;;;;;;4911586;28;20061;-61
2022/04/18 01:02:00;;;;;;;5.93;4.50;;;1.90;99.90;;;;;;4907784;28;20050;-64
2022/04/18 01:04:27;;;;;;;6.15;4.35;;;1.90;99.90;;;;;;4921862;28;20104;-63
2022/04/18 01:06:55;;;;;;;6.97;4.80;;;1.80;99.90;;;;;;4924584;28;20046;-62
2022/04/18 01:09:22;;;;;;;6.30;4.85;;;1.80;99.90;;;;;;4925287;28;20935;-62
2022/04/18 01:11:50;;;;;;;7.45;4.57;;;1.80;99.90;;;;;;4925396;28;20322;-62
2022/04/18 01:14:29;;;;;;;6.55;4.55;;;1.80;99.90;;;;;;4928361;28;20038;-62
2022/04/18 01:17:15;;;;;;;5.68;4.18;;;1.80;99.90;;;;;;4920869;28;20088;-62
2022/04/18 01:19:56;;;;;;;8.43;4.97;;;1.70;99.90;;;;;;4922816;28;20172;-62
2022/04/18 01:22:44;;;;;;;6.25;4.97;;;1.70;99.90;;;;;;4925961;28;20057;-63
2022/04/18 01:31:06;;;;;;;7.38;4.53;;;1.80;99.90;;;;;;4928154;28;20046;-63
2022/04/18 01:33:33;;;;;;;5.30;4.35;;;1.70;99.90;;;;;;4933243;28;20352;-63
2022/04/18 01:36:02;;;;;;;5.93;4.20;;;1.70;99.90;;;;;;4931795;28;20042;-62
2022/04/18 01:38:31;;;;;;;8.10;4.70;;;1.70;99.90;;;;;;4934500;28;20050;-63
2022/04/18 01:40:59;;;;;;;5.93;4.18;;;1.60;99.90;;;;;;4931015;28;20800;-63
2022/04/18 01:43:26;;;;;;;7.10;4.40;;;1.60;99.90;;;;;;4933901;28;20216;-62
2022/04/18 01:45:55;;;;;;;6.85;4.60;;;1.60;99.90;;;;;;4926198;28;20215;-63
2022/04/18 01:48:25;;;;;;;8.55;5.68;;;1.60;99.90;;;;;;4922933;28;20379;-63
2022/04/18 01:50:53;;;;;;;8.77;4.78;;;1.60;99.90;;;;;;4913841;28;20050;-63
2022/04/18 01:53:21;;;;;;;5.95;4.13;;;1.50;99.90;;;;;;4925980;28;20043;-63
2022/04/18 01:55:48;;;;;;;8.10;5.20;;;1.50;99.90;;;;;;4911690;28;20043;-62
2022/04/18 01:58:16;;;;;;;6.45;4.70;;;1.50;99.90;;;;;;4926387;28;20059;-64
2022/04/18 02:00:44;;;;;;;6.30;4.60;;;1.50;99.90;;;;;;4908124;28;20244;-63
2022/04/18 02:03:11;;;;;;;5.10;4.20;;;1.50;99.90;;;;;;4909219;28;20396;-63
2022/04/18 02:05:42;;;;;;;6.18;4.32;;;1.50;99.90;;;;;;4909932;28;20051;-62
2022/04/18 02:08:09;;;;;;;7.07;4.38;;;1.50;99.90;;;;;;4908143;28;20031;-63
2022/04/18 02:10:36;;;;;;;6.25;4.63;;;1.50;99.90;;;;;;4908629;28;20328;-63
2022/04/18 02:13:05;;;;;;;7.15;4.65;;;1.40;99.90;;;;;;4908445;28;20391;-62
2022/04/18 02:15:33;;;;;;;8.27;4.40;;;1.50;99.90;;;;;;4912067;28;20598;-62
2022/04/18 02:18:03;;;;;;;4.70;3.97;;;1.40;99.90;;;;;;4909756;28;20058;-64
2022/04/18 02:20:31;;;;;;;8.85;4.15;;;1.40;99.90;;;;;;4925114;28;20429;-63
2022/04/18 02:22:58;;;;;;;5.80;4.20;;;1.40;99.90;;;;;;4930565;28;20046;-62
2022/04/18 02:25:25;;;;;;;5.20;4.35;;;1.40;99.90;;;;;;4927150;28;20400;-62
2022/04/18 02:27:57;;;;;;;5.53;4.75;;;1.30;99.90;;;;;;4912301;28;20231;-62
2022/04/18 02:30:25;;;;;;;4.95;4.10;;;1.30;99.90;;;;;;4930034;28;20073;-62
2022/04/18 02:32:52;;;;;;;6.57;5.07;;;1.30;99.90;;;;;;4932269;28;20145;-63
2022/04/18 02:35:24;;;;;;;7.35;5.10;;;1.20;99.90;;;;;;4930550;28;20311;-62
2022/04/18 02:37:56;;;;;;;8.27;4.43;;;1.20;99.90;;;;;;4926995;28;20046;-62
2022/04/18 02:40:33;;;;;;;8.73;5.55;;;1.20;99.90;;;;;;4926054;28;20461;-62
2022/04/18 02:43:00;;;;;;;7.97;5.05;;;1.20;99.90;;;;;;4927795;28;20161;-62
2022/04/18 02:45:29;;;;;;;8.68;4.75;;;1.20;99.90;;;;;;4927387;28;20038;-62
2022/04/18 02:48:10;;;;;;;7.72;4.93;;;1.20;99.90;;;;;;4925734;28;20559;-62
2022/04/18 02:50:41;;;;;;;7.82;5.18;;;1.10;99.90;;;;;;4927251;28;20165;-63
2022/04/18 02:53:09;;;;;;;5.88;4.20;;;1.10;99.90;;;;;;4927294;28;20074;-62
2022/04/18 02:55:41;;;;;;;7.15;4.45;;;1.00;99.90;;;;;;4927179;28;20157;-63
2022/04/18 02:58:09;;;;;;;8.93;4.28;;;1.00;99.90;;;;;;4929848;28;20402;-62
2022/04/18 03:00:37;;;;;;;5.45;4.07;;;0.90;99.90;;;;;;4928760;28;21002;-62
2022/04/18 03:03:04;;;;;;;8.93;4.45;;;0.90;99.90;;;;;;4914880;28;20410;-62
2022/04/18 03:05:34;;;;;;;6.95;4.80;;;0.80;99.90;;;;;;4920000;28;20690;-62
2022/04/18 03:08:01;;;;;;;6.78;4.50;;;0.80;99.90;;;;;;4908042;28;20059;-62
2022/04/18 03:13:18;;;;;;;4.88;4.00;;;0.80;99.90;;;;;;4907561;28;20580;-61
2022/04/18 03:15:46;;;;;;;6.90;4.45;;;0.80;99.90;;;;;;4917118;28;20050;-62
2022/04/18 03:18:13;;;;;;;5.93;4.40;;;0.80;99.90;;;;;;4931315;28;20275;-62
2022/04/18 03:20:41;;;;;;;6.45;4.75;;;0.80;99.90;;;;;;4926623;28;20525;-62
2022/04/18 03:23:08;;;;;;;6.35;4.20;;;0.80;99.90;;;;;;4925720;28;20299;-62
2022/04/18 03:25:58;;;;;;;6.07;3.88;;;0.80;99.90;;;;;;4925034;28;20343;-61
2022/04/18 03:28:32;;;;;;;6.90;3.65;;;0.80;99.90;;;;;;4925901;28;20088;-62
2022/04/18 03:30:59;;;;;;;5.93;4.10;;;0.80;99.90;;;;;;4928235;28;20042;-62
2022/04/18 03:33:26;;;;;;;5.18;3.78;;;0.80;99.90;;;;;;4929739;28;20065;-61
2022/04/18 03:41:25;;;;;;;5.50;4.35;;;0.80;99.90;;;;;;4928235;28;20047;-61
2022/04/18 03:43:52;;;;;;;4.57;3.42;;;0.80;99.90;;;;;;4927741;28;20132;-62
2022/04/18 03:46:19;;;;;;;7.68;4.15;;;0.80;99.90;;;;;;4932156;28;20368;-62
2022/04/18 03:48:46;;;;;;;5.32;4.05;;;0.70;99.90;;;;;;4922942;28;20792;-62
2022/04/18 03:51:13;;;;;;;5.93;4.63;;;0.70;99.90;;;;;;4927445;28;20161;-63
2022/04/18 03:53:40;;;;;;;6.00;4.45;;;0.70;99.90;;;;;;4927183;28;20054;-62
2022/04/18 03:56:08;;;;;;;6.32;3.80;;;0.70;99.90;;;;;;4927587;28;20186;-62
2022/04/18 03:58:53;;;;;;;5.90;4.30;;;0.70;99.90;;;;;;4925970;28;20058;-63
2022/04/18 04:01:21;;;;;;;4.97;3.90;;;0.70;99.90;;;;;;4926358;28;20339;-62
2022/04/18 04:03:48;;;;;;;6.75;4.25;;;0.70;99.90;;;;;;4926423;28;20276;-62
2022/04/18 04:06:16;;;;;;;6.75;3.97;;;0.60;99.90;;;;;;4927340;28;20342;-62
2022/04/18 04:08:43;;;;;;;6.78;4.22;;;0.60;99.90;;;;;;4909125;28;20049;-63
2022/04/18 04:11:11;;;;;;;7.60;5.25;;;0.60;99.90;;;;;;4909815;28;20118;-62
2022/04/18 04:13:42;;;;;;;4.88;3.83;;;0.60;99.90;;;;;;4906750;28;20042;-62
2022/04/18 04:16:13;;;;;;;8.32;3.90;;;0.50;99.90;;;;;;4917933;28;20053;-62
2022/04/18 04:18:40;;;;;;;5.57;4.22;;;0.50;99.90;;;;;;4927816;28;20369;-62
2022/04/18 04:21:09;;;;;;;5.43;3.97;;;0.50;99.90;;;;;;4926059;28;20356;-63
2022/04/18 04:23:37;;;;;;;8.82;4.03;;;0.50;99.90;;;;;;4927033;28;20070;-61
2022/04/18 04:26:36;;;;;;;6.53;4.35;;;0.50;99.90;;;;;;4932090;28;20058;-62
2022/04/18 04:29:04;;;;;;;9.80;4.72;;;0.40;99.90;;;;;;4928682;28;20042;-62
2022/04/18 04:31:39;;;;;;;9.45;4.78;;;0.40;99.90;;;;;;4925251;28;20038;-62
2022/04/18 04:34:06;;;;;;;4.93;4.05;;;0.40;99.90;;;;;;4928343;28;20065;-62
2022/04/18 04:36:45;;;;;;;5.63;3.78;;;0.40;99.90;;;;;;4926522;28;20240;-62
2022/04/18 04:39:17;;;;;;;6.28;4.18;;;0.40;99.90;;;;;;4926818;28;20034;-62
2022/04/18 04:41:45;;;;;;;5.38;4.65;;;0.40;99.90;;;;;;4925842;28;20042;-62
2022/04/18 04:44:12;;;;;;;6.15;3.95;;;0.40;99.90;;;;;;4908571;28;20054;-62
2022/04/18 04:46:54;;;;;;;7.25;4.60;;;0.40;99.90;;;;;;4927784;28;20207;-62
2022/04/18 04:49:22;;;;;;;5.07;4.00;;;0.40;99.90;;;;;;4924414;28;20312;-62
2022/04/18 04:52:04;;;;;;;6.57;5.32;;;0.40;99.90;;;;;;4928364;28;20042;-62
2022/04/18 04:54:40;;;;;;;7.95;4.88;;;0.40;99.90;;;;;;4924625;28;20061;-62
2022/04/18 04:57:10;;;;;;;6.90;4.93;;;0.40;99.90;;;;;;4928313;28;20221;-62
2022/04/18 04:59:56;;;;;;;6.78;5.00;;;0.50;99.90;;;;;;4925247;28;20166;-62
2022/04/18 05:02:24;;;;;;;9.73;6.13;;;0.50;99.90;;;;;;4927667;28;20047;-61
2022/04/18 05:04:52;;;;;;;7.50;5.50;;;0.60;99.90;;;;;;4926522;28;20502;-62
2022/04/18 05:07:20;;;;;;;9.50;5.78;;;0.60;99.90;;;;;;4929170;28;20042;-63
2022/04/18 05:10:10;;;;;;;8.63;5.72;;;0.70;99.90;;;;;;4936615;28;20832;-62
2022/04/18 05:12:37;;;;;;;11.35;5.93;;;0.70;99.90;;;;;;4931114;28;20042;-62
2022/04/18 05:15:07;;;;;;;8.77;6.03;;;0.80;99.90;;;;;;4931506;28;20326;-63
2022/04/18 05:17:54;;;;;;;10.82;5.35;;;0.90;99.90;;;;;;4929616;28;20042;-62
2022/04/18 05:20:22;;;;;;;10.80;5.65;;;0.90;99.90;;;;;;4929550;28;20153;-63
2022/04/18 05:22:51;;;;;;;7.28;5.53;;;1.00;99.90;;;;;;4929344;28;20054;-62
2022/04/18 05:25:18;;;;;;;10.43;5.75;;;1.10;99.90;;;;;;4929916;28;20046;-63
2022/04/18 05:27:46;;;;;;;8.00;5.88;;;1.10;99.90;;;;;;4929936;28;20416;-62
2022/04/18 05:30:28;;;;;;;7.93;5.75;;;1.20;99.90;;;;;;4931248;28;20162;-62
2022/04/18 05:32:56;;;;;;;8.57;5.63;;;1.30;99.90;;;;;;4929358;28;20836;-63
2022/04/18 05:35:24;;;;;;;11.05;6.90;;;1.40;99.90;;;;;;4930610;28;20042;-57
2022/04/18 05:37:51;;;;;;;8.27;6.57;;;1.40;99.90;;;;;;4925913;28;20039;-58
2022/04/18 05:40:36;;;;;;;6.32;5.20;;;1.50;99.90;;;;;;4929585;28;20659;-58
2022/04/18 05:43:05;;;;;;;9.63;5.38;;;1.60;99.90;;;;;;4932244;28;20972;-58
2022/04/18 05:45:33;;;;;;;9.75;5.03;;;1.70;99.90;;;;;;4928399;28;20787;-59
2022/04/18 05:48:08;;;;;;;9.05;5.22;;;1.90;99.90;;;;;;4926570;28;20053;-59
2022/04/18 05:50:45;;;;;;;6.63;5.20;;;2.00;99.90;;;;;;4927873;28;20049;-59
2022/04/18 05:53:26;;;;;;;10.25;5.30;;;2.10;99.90;;;;;;4928196;28;20307;-58
2022/04/18 05:56:12;;;;;;;7.85;5.10;;;2.20;99.90;;;;;;4928909;28;20057;-59
2022/04/18 05:58:59;;;;;;;13.30;5.05;;;2.30;99.90;;;;;;4931347;28;20051;-59
2022/04/18 06:01:38;;;;;;;11.45;5.40;;;2.40;99.90;;;;;;4932023;28;20544;-59
2022/04/18 06:04:14;;;;;;;5.65;4.57;;;2.50;99.90;;;;;;4912910;28;20378;-60
2022/04/18 06:06:48;;;;;;;8.45;4.70;;;2.60;99.90;;;;;;4931767;28;20046;-58
2022/04/18 06:09:16;;;;;;;8.85;4.63;;;2.70;99.90;;;;;;4925040;28;20679;-58
2022/04/18 06:11:44;;;;;;;7.55;4.50;;;2.80;99.90;;;;;;4945903;28;20853;-58
2022/04/18 06:14:17;;;;;;;7.82;4.80;;;3.00;99.90;;;;;;4927231;28;20247;-59
2022/04/18 06:16:49;;;;;;;8.20;4.70;;;3.10;99.90;;;;;;4947517;28;20081;-58
2022/04/18 06:19:19;;;;;;;9.50;5.43;;;3.20;99.90;;;;;;4913224;28;20038;-58
2022/04/18 06:21:48;;;;;;;8.18;4.80;;;3.30;99.90;;;;;;4930258;28;20042;-59
2022/04/18 06:24:18;;;;;;;7.68;5.18;;;3.40;99.90;;;;;;4929947;28;20050;-57
2022/04/18 06:26:59;;;;;;;7.28;4.40;;;3.60;99.90;;;;;;4927877;28;20104;-58
2022/04/18 06:29:28;;;;;;;6.70;4.55;;;3.80;99.90;;;;;;4927392;28;20053;-59
2022/04/18 06:31:55;;;;;;;6.30;4.50;;;3.90;99.90;;;;;;4927790;28;20598;-58
2022/04/18 06:34:25;;;;;;;10.13;4.90;;;4.00;99.90;;;;;;4931371;28;20489;-59
2022/04/18 06:36:54;;;;;;;9.15;5.05;;;4.20;99.90;;;;;;4927668;28;20307;-59
2022/04/18 06:39:30;;;;;;;6.63;4.47;;;4.30;99.90;;;;;;4914908;28;20038;-58
2022/04/18 06:42:07;;;;;;;7.05;4.65;;;4.40;99.90;;;;;;4916159;28;20054;-58
2022/04/18 06:44:42;;;;;;;7.00;4.28;;;4.50;99.90;;;;;;4928235;28;20070;-61
2022/04/18 06:47:10;;;;;;;7.38;4.40;;;4.60;99.90;;;;;;4929346;28;20046;-58
2022/04/18 06:49:56;;;;;;;7.45;4.20;;;4.70;99.90;;;;;;4917256;28;20496;-59
2022/04/18 06:52:46;;;;;;;5.95;4.22;;;4.80;99.90;;;;;;4927768;28;20053;-57
2022/04/18 06:56:58;;;;;;;5.68;4.55;;;5.00;99.90;;;;;;4947196;28;20165;-55
2022/04/18 06:58:29;;;;;;;8.63;5.20;;;5.10;99.90;;;;;;4950689;28;20317;-55
2022/04/18 07:00:58;;;;;;;8.30;5.38;;;5.30;99.90;;;;;;4946488;28;20046;-55
2022/04/18 07:03:27;;;;;;;5.82;4.35;;;5.30;99.90;;;;;;4949745;28;20388;-55
2022/04/18 07:05:54;;;;;;;10.77;4.97;;;5.40;99.90;;;;;;4946373;28;20212;-56
2022/04/18 07:08:21;;;;;;;6.70;4.13;;;5.50;99.90;;;;;;4949701;28;20349;-56
2022/04/18 07:10:50;;;;;;;8.02;4.70;;;5.60;99.90;;;;;;4926209;28;20050;-56
2022/04/18 07:13:18;;;;;;;7.22;4.47;;;5.70;99.90;;;;;;4890052;28;20410;-54
2022/04/18 07:15:47;;;;;;;5.40;3.50;;;5.80;99.90;;;;;;4916112;28;20099;-56
2022/04/18 07:18:17;;;;;;;8.15;3.90;;;5.90;99.90;;;;;;4926370;28;20054;-60
2022/04/18 07:20:44;;;;;;;9.15;4.18;;;6.00;99.90;;;;;;4927352;28;20038;-59
2022/04/18 07:23:14;;;;;;;8.23;3.78;;;6.20;99.90;;;;;;4927271;28;20046;-61
2022/04/18 07:25:54;;;;;;;5.13;3.17;;;6.30;99.90;;;;;;4915398;28;20050;-62
2022/04/18 07:28:32;;;;;;;6.57;3.47;;;6.40;99.90;;;;;;4929674;28;20049;-58
2022/04/18 07:31:00;;;;;;;4.80;3.70;;;6.50;99.90;;;;;;4929307;28;20152;-57
2022/04/18 07:33:28;;;;;;;3.85;3.40;;;6.60;99.90;;;;;;4929251;28;20104;-56
2022/04/18 07:35:57;;;;;;;3.95;2.92;;;6.80;99.90;;;;;;4931128;28;20054;-56
2022/04/18 07:41:11;;;;;;;7.82;3.42;;;7.10;99.90;;;;;;4926131;28;20069;-57
2022/04/18 07:43:43;;;;;;;5.90;3.50;;;7.20;99.90;;;;;;4928155;28;20258;-56
2022/04/18 07:46:12;;;;;;;5.22;2.97;;;7.50;99.90;;;;;;4927584;28;20046;-56
2022/04/18 07:48:40;;;;;;;3.92;3.17;;;8.20;99.90;;;;;;4927989;28;20104;-56
2022/04/18 07:53:52;;;;;;;4.32;3.33;;;9.60;97.70;;;;;;4930463;28;20108;-57
2022/04/18 07:56:20;;;;;;;8.35;3.70;;;10.30;96.00;;;;;;4926383;28;20560;-57
2022/04/18 07:58:47;;;;;;;4.07;3.05;;;10.80;93.70;;;;;;4930256;28;20042;-57
2022/04/18 08:01:41;;;;;;;6.90;3.92;;;11.30;91.70;;;;;;4931969;28;20762;-57
2022/04/18 08:04:15;;;;;;;3.88;3.20;;;11.80;85.50;;;;;;4926842;28;20057;-57
2022/04/18 08:06:42;;;;;;;6.25;3.70;;;12.10;81.50;;;;;;4929017;28;20195;-58
2022/04/18 08:09:17;;;;;;;5.22;3.53;;;12.30;78.50;;;;;;4924530;28;20095;-61
2022/04/18 08:11:44;;;;;;;6.30;3.75;;;12.60;77.00;;;;;;4909823;28;20409;-57
2022/04/18 08:14:16;;;;;;;5.63;3.47;;;12.80;77.40;;;;;;4926190;28;20392;-60
2022/04/18 08:16:47;;;;;;;9.55;4.65;;;13.20;76.10;;;;;;4929999;28;20057;-60
2022/04/18 08:19:28;;;;;;;7.00;4.72;;;13.50;73.40;;;;;;4912384;28;20046;-62
2022/04/18 08:21:56;;;;;;;6.40;4.90;;;13.60;72.00;;;;;;4929489;28;20129;-61
2022/04/18 08:24:24;;;;;;;8.27;5.13;;;13.60;75.10;;;;;;4930996;28;20580;-61
2022/04/18 08:26:54;;;;;;;6.95;5.25;;;13.70;76.30;;;;;;4927887;28;20294;-61
2022/04/18 08:29:29;;;;;;;10.07;5.25;;;13.60;75.60;;;;;;4914531;28;20054;-61
2022/04/18 08:32:17;;;;;;;7.40;5.15;;;13.60;74.80;;;;;;4926142;28;20152;-62
2022/04/18 08:34:44;;;;;;;7.68;4.70;;;13.40;76.70;;;;;;4926325;28;20038;-62
2022/04/18 08:37:17;;;;;;;7.45;4.30;;;13.60;78.40;;;;;;4925241;28;20217;-62
2022/04/18 08:40:06;;;;;;;9.30;4.93;;;13.70;75.70;;;;;;4930189;28;20580;-63
2022/04/18 08:42:36;;;;;;;8.13;5.07;;;13.90;73.90;;;;;;4926434;28;20056;-64
2022/04/18 08:45:06;;;;;;;9.10;4.90;;;14.10;78.60;;;;;;4925207;28;20123;-59
2022/04/18 08:53:10;;;;;;;;;;;14.50;73.80;;;;;;4925885;28;20038;-59
2022/04/18 08:55:40;;;;;;;7.00;4.45;;;14.80;73.50;;;;;;4927033;28;19932;-59
2022/04/18 08:58:28;;;;;;;5.78;3.90;;;15.10;68.50;;;;;;4923077;28;20042;-59
2022/04/18 09:00:59;;;;;;;6.22;4.25;;;15.40;68.70;;;;;;4924443;28;20903;-55
2022/04/18 09:03:48;;;;;;;6.00;3.97;;;15.60;68.50;;;;;;4928440;28;20050;-58
2022/04/18 09:06:24;;;;;;;5.07;4.05;;;15.80;66.00;;;;;;4927816;28;20595;-58
2022/04/18 09:09:04;;;;;;;6.15;4.00;;;15.90;65.10;;;;;;4933226;28;20046;-58
2022/04/18 09:11:37;;;;;;;5.93;4.10;;;16.00;63.00;;;;;;4929303;28;20038;-58
2022/04/18 09:14:11;;;;;;;5.40;4.68;;;15.80;60.70;;;;;;4930665;28;20057;-57
2022/04/18 09:16:41;;;;;;;9.95;4.78;;;15.80;61.60;;;;;;4927728;28;20053;-58
2022/04/18 09:19:15;;;;;;;6.07;3.50;;;15.70;63.40;;;;;;4908267;28;20038;-57
2022/04/18 09:22:03;;;;;;;5.93;3.72;;;15.80;68.00;;;;;;4925645;28;20050;-55
2022/04/18 09:24:54;;;;;;;6.03;4.20;;;16.10;65.30;;;;;;4927853;28;20444;-56
2022/04/18 09:27:27;;;;;;;4.65;3.30;;;16.30;64.80;;;;;;4947032;28;20362;-56
2022/04/18 09:30:09;;;;;;;5.65;3.22;;;16.50;62.20;;;;;;4943526;28;20875;-60
2022/04/18 09:33:02;;;;;;;5.68;3.53;;;16.80;62.40;;;;;;4925456;28;20046;-58
2022/04/18 09:35:51;;;;;;;3.55;3.25;;;16.90;61.40;;;;;;4926765;28;20108;-57
2022/04/18 09:38:19;;;;;;;6.03;2.80;;;17.10;61.40;;;;;;4910011;28;20035;-57
2022/04/18 09:41:05;;;;;;;4.38;3.30;;;17.20;57.10;;;;;;4925727;28;20393;-58
2022/04/18 09:43:41;;;;;;;5.05;3.33;;;17.20;56.80;;;;;;4926874;28;20535;-57
2022/04/18 09:46:12;;;;;;;6.53;3.03;;;17.20;58.70;;;;;;4925945;28;20039;-63
2022/04/18 09:48:49;;;;;;;5.68;2.97;;;17.30;57.90;;;;;;4919232;28;20258;-63
2022/04/18 09:51:27;;;;;;;3.60;3.17;;;17.50;55.00;;;;;;4945047;28;20068;-63
2022/04/18 09:54:07;;;;;;;;;;;17.40;54.70;;;;;;4948930;28;20167;-63
2022/04/18 09:56:34;;;;;;;5.00;3.28;;;17.20;54.60;;;;;;4955490;28;20123;-62
2022/04/18 09:59:02;;;;;;;4.10;2.97;;;17.20;56.30;;;;;;4946679;28;20960;-63
2022/04/18 10:01:33;;;;;;;5.70;2.35;;;17.30;56.70;;;;;;4957117;28;20037;-63
2022/04/18 10:04:05;;;;;;;4.60;3.25;;;17.50;55.90;;;;;;4948355;28;20077;-63
2022/04/18 10:06:33;;;;;;;3.75;2.95;;;17.60;55.30;;;;;;4946923;28;20275;-62
2022/04/18 10:09:01;;;;;;;4.80;2.92;;;17.70;53.20;;;;;;4948455;28;20383;-62
2022/04/18 10:11:28;;;;;;;5.40;3.28;;;17.90;55.30;;;;;;4950074;28;20903;-62
2022/04/18 10:13:55;;;;;;;2.53;2.33;;;17.90;54.40;;;;;;4940392;28;20117;-62
2022/04/18 10:16:23;;;;;;;3.38;2.70;;;18.00;54.00;;;;;;4956914;28;20140;-62
2022/04/18 10:18:56;;;;;;;4.40;3.00;;;18.10;54.50;;;;;;4934775;28;20109;-62
2022/04/18 10:21:30;;;;;;;3.95;2.72;;;18.20;53.90;;;;;;4926865;28;20544;-62
2022/04/18 10:24:36;;;;;;;5.10;2.83;;;18.40;54.20;;;;;;4932406;28;20047;-62
2022/04/18 10:27:31;;;;;;;4.22;2.97;;;18.50;51.30;;;;;;4932691;28;20053;-62
2022/04/18 10:30:00;;;;;;;5.03;2.97;;;18.60;51.90;;;;;;4934022;28;20045;-63
2022/04/18 10:32:28;;;;;;;2.22;1.98;;;18.70;51.10;;;;;;4926270;28;20332;-59
2022/04/18 10:35:03;;;;;;;3.03;2.30;;;18.70;50.70;;;;;;4937812;28;20093;-58
2022/04/18 10:37:31;;;;;;;3.22;2.47;;;18.90;50.50;;;;;;4956145;28;20042;-58
2022/04/18 10:40:06;;;;;;;3.88;2.55;;;19.00;49.60;;;;;;4941970;28;20737;-57
2022/04/18 10:42:38;;;;;;;4.75;2.40;;;19.20;48.20;;;;;;4933690;28;20038;-57
2022/04/18 10:45:16;;;;;;;4.15;2.70;;;19.20;48.70;;;;;;4929130;28;20246;-57
2022/04/18 10:47:55;;;;;;;3.92;2.58;;;19.10;47.70;;;;;;4933483;28;20048;-56
2022/04/18 10:50:34;;;;;;;8.52;2.42;;;18.90;47.90;;;;;;4932285;28;20051;-64
2022/04/18 10:53:14;;;;;;;3.15;2.40;;;18.70;47.10;;;;;;4927981;28;20046;-63
2022/04/18 10:55:54;;;;;;;2.78;2.22;;;18.70;48.60;;;;;;4929276;28;20054;-60
2022/04/18 10:58:25;;;;;;;4.03;2.30;;;18.70;49.10;;;;;;4930686;28;20042;-60
2022/04/18 11:00:54;;;;;;;2.17;1.85;;;18.80;50.50;;;;;;4929858;28;20105;-60
2022/04/18 11:03:49;;;;;;;3.80;2.30;;;18.90;50.00;;;;;;4929577;28;20046;-60
2022/04/18 11:06:17;;;;;;;2.20;2.00;;;19.00;49.40;;;;;;4931363;28;20288;-60
2022/04/18 11:09:02;;;;;;;4.43;2.53;;;19.20;47.90;;;;;;4930331;28;20832;-60
2022/04/18 11:12:12;;;;;;;8.52;2.08;;;19.30;47.50;;;;;;4927526;28;20211;-61
2022/04/18 11:14:48;;;;;;;2.72;2.50;;;19.40;46.70;;;;;;4909326;28;20832;-61
2022/04/18 11:17:32;;;;;;;2.72;2.15;;;19.40;48.10;;;;;;4924917;28;20149;-60
2022/04/18 11:20:27;;;;;;;3.13;2.13;;;19.40;46.40;;;;;;4932417;28;20189;-60
2022/04/18 11:23:33;;;;;;;2.03;1.83;;;19.40;46.20;;;;;;4927938;28;20397;-60
2022/04/18 11:26:03;;;;;;;6.05;2.50;;;19.50;47.40;;;;;;4924825;28;20062;-59
2022/04/18 11:28:41;;;;;;;2.40;1.92;;;19.50;47.10;;;;;;4928038;28;20300;-59
2022/04/18 11:31:20;;;;;;;2.85;1.73;;;19.50;45.50;;;;;;4930208;28;20065;-60
2022/04/18 11:33:47;;;;;;;2.65;2.10;;;19.70;47.60;;;;;;4927837;28;20247;-60
2022/04/18 11:36:14;;;;;;;2.08;1.80;;;19.90;47.20;;;;;;4928903;28;20042;-60
2022/04/18 11:38:42;;;;;;;2.38;1.85;;;20.10;47.50;;;;;;4940969;28;20867;-60
2022/04/18 11:41:13;;;;;;;3.22;2.15;;;20.00;45.80;;;;;;4935093;28;20144;-60
2022/04/18 11:43:41;;;;;;;2.55;2.03;;;20.00;45.00;;;;;;4914298;28;20835;-59
2022/04/18 11:46:09;;;;;;;2.20;1.80;;;20.00;44.90;;;;;;4949436;28;20077;-60
2022/04/18 11:48:37;;;;;;;4.82;1.90;;;19.90;47.00;;;;;;4935550;28;20104;-58
2022/04/18 11:51:05;;;;;;;2.58;2.05;;;19.90;47.50;;;;;;4949256;28;20034;-57
2022/04/18 11:53:34;;;;;;;2.90;1.88;;;19.90;46.80;;;;;;4945138;28;20096;-56
2022/04/18 11:56:06;;;;;;;3.55;2.10;;;20.00;46.30;;;;;;4950632;28;20041;-56
2022/04/18 11:58:40;;;;;;;2.13;1.80;;;20.10;45.00;;;;;;4947677;28;20145;-56
2022/04/18 12:06:46;;;;;;;2.70;2.22;;;20.00;44.60;;;;;;4945314;28;20029;-61
2022/04/18 12:09:15;;;;;;;2.88;1.80;;;20.00;43.60;;;;;;4950305;28;20038;-62
2022/04/18 12:11:43;;;;;;;2.47;1.60;;;20.00;44.40;;;;;;4937935;28;20056;-56
2022/04/18 12:14:10;;;;;;;3.60;1.63;;;19.90;38.90;;;;;;4938860;28;20125;-57
2022/04/18 12:16:39;;;;;;;4.57;1.45;;;19.80;43.40;;;;;;4938469;28;20137;-56
2022/04/18 12:19:11;;;;;;;1.88;1.60;;;19.80;43.60;;;;;;4930774;28;20038;-61
2022/04/18 12:21:39;;;;;;;2.28;1.55;;;20.00;41.80;;;;;;4957938;28;20053;-57
2022/04/18 12:24:08;;;;;;;1.65;1.52;;;20.10;43.00;;;;;;4948388;28;20579;-57
2022/04/18 12:26:35;;;;;;;3.13;1.48;;;20.30;41.30;;;;;;4949978;28;21133;-61
2022/04/18 12:29:07;;;;;;;2.78;1.17;;;20.30;42.90;;;;;;4944910;28;20598;-60
2022/04/18 12:31:39;;;;;;;1.63;1.13;;;20.40;39.90;;;;;;4950373;28;20944;-62
2022/04/18 12:34:06;;;;;;;1.55;1.17;;;20.40;38.80;;;;;;4939940;28;20034;-62
2022/04/18 12:36:36;;;;;;;1.42;1.20;;;20.40;38.60;;;;;;4944037;28;20054;-62
2022/04/18 12:39:05;;;;;;;2.85;1.35;;;20.40;39.50;;;;;;4949575;28;20803;-62
2022/04/18 12:41:39;;;;;;;1.48;1.35;;;20.60;39.40;;;;;;4945042;28;20699;-57
2022/04/18 12:44:11;;;;;;;1.50;1.40;;;20.60;40.20;;;;;;4949510;28;20203;-57
2022/04/18 12:46:39;;;;;;;1.83;1.45;;;20.70;39.30;;;;;;4937897;28;20200;-58
2022/04/18 12:49:09;;;;;;;1.70;1.60;;;20.80;38.00;;;;;;4945857;28;20041;-61
2022/04/18 12:51:39;;;;;;;3.08;1.90;;;20.80;38.80;;;;;;4929988;28;20057;-59
2022/04/18 12:54:18;;;;;;;2.85;1.67;;;20.60;39.50;;;;;;4951511;28;20061;-58
2022/04/18 12:56:47;;;;;;;2.13;1.80;;;20.60;40.60;;;;;;4944762;28;20287;-57
2022/04/18 12:59:21;;;;;;;1.90;1.48;;;20.60;39.70;;;;;;4928667;28;20050;-57
2022/04/18 13:01:48;;;;;;;2.72;2.00;;;20.50;38.80;;;;;;4931317;28;20065;-60
2022/04/18 13:04:21;;;;;;;2.45;1.85;;;20.30;39.50;;;;;;4928683;28;20038;-61
2022/04/18 13:07:04;;;;;;;3.38;1.60;;;20.10;39.10;;;;;;4925456;28;20050;-62
2022/04/18 13:09:31;;;;;;;1.67;1.58;;;20.20;39.60;;;;;;4928559;28;20533;-63
2022/04/18 13:12:06;;;;;;;4.13;2.53;;;20.30;39.20;;;;;;4930153;28;20497;-63
2022/04/18 13:14:37;;;;;;;1.85;1.40;;;20.40;38.30;;;;;;4922730;28;20043;-63
2022/04/18 13:17:09;;;;;;;1.77;1.50;;;20.40;38.30;;;;;;4926019;28;20042;-63
2022/04/18 13:19:37;;;;;;;1.90;1.67;;;20.50;39.90;;;;;;4928612;28;20030;-63
2022/04/18 13:22:06;;;;;;;2.28;1.70;;;20.60;37.70;;;;;;4930343;28;20751;-63
2022/04/18 13:24:33;;;;;;;2.22;1.65;;;20.60;37.50;;;;;;4931640;28;20038;-63
2022/04/18 13:27:00;;;;;;;1.73;1.45;;;20.60;37.80;;;;;;4930384;28;20148;-63
2022/04/18 13:29:27;;;;;;;1.90;1.80;;;20.60;35.40;;;;;;4934482;28;20410;-63
2022/04/18 13:31:54;;;;;;;2.88;1.85;;;20.60;36.00;;;;;;4932577;28;20054;-62
2022/04/18 13:34:21;;;;;;;2.47;1.70;;;20.50;35.20;;;;;;4934428;28;20038;-61
2022/04/18 13:36:49;;;;;;;2.15;1.67;;;20.60;36.70;;;;;;4931054;28;20448;-54
2022/04/18 13:39:16;;;;;;;2.67;2.17;;;20.70;35.10;;;;;;4935074;28;20049;-59
2022/04/18 13:41:43;;;;;;;2.42;1.73;;;20.80;33.80;;;;;;4935515;28;20058;-61
2022/04/18 13:44:11;;;;;;;1.08;0.98;;;20.70;34.20;;;;;;4932547;28;20560;-59
2022/04/18 13:46:39;;;;;;;1.55;1.42;;;20.80;31.50;;;;;;4934555;28;20039;-57
2022/04/18 13:49:07;;;;;;;3.10;1.25;;;20.80;33.10;;;;;;4930943;28;20043;-62